sensor_id;sensor_type;location;lat;lon;timestamp;P1;durP1;ratioP1;P2;durP2;ratioP2
20012;SDS011;10167;42.852;23.042;2022-12-20T00:02:06;0.47;;;0.47;;
20012;SDS011;10167;42.852;23.042;2022-12-20T00:04:36;2.08;;;1.92;;
20012;SDS011;10167;42.852;23.042;2022-12-20T00:07:06;0.40;;;0.40;;
20012;SDS011;10167;42.852;23.042;2022-12-20T00:09:35;1.15;;;1.15;;
20012;SDS011;10167;42.852;23.042;2022-12-20T00:12:04;0.85;;;0.85;;
20012;SDS011;10167;42.852;23.042;2022-12-20T00:14:33;1.38;;;1.27;;
20012;SDS011;10167;42.852;23.042;2022-12-20T00:17:03;1.38;;;0.98;;
20012;SDS011;10167;42.852;23.042;2022-12-20T00:19:35;1.45;;;1.20;;
20012;SDS011;10167;42.852;23.042;2022-12-20T00:22:05;1.40;;;1.30;;
20012;SDS011;10167;42.852;23.042;2022-12-20T00:24:34;0.57;;;0.57;;
20012;SDS011;10167;42.852;23.042;2022-12-20T00:27:03;0.40;;;0.40;;
20012;SDS011;10167;42.852;23.042;2022-12-20T00:29:33;0.80;;;0.77;;
20012;SDS011;10167;42.852;23.042;2022-12-20T00:32:03;0.30;;;0.30;;
20012;SDS011;10167;42.852;23.042;2022-12-20T00:34:32;0.55;;;0.55;;
20012;SDS011;10167;42.852;23.042;2022-12-20T00:37:03;0.75;;;0.75;;
20012;SDS011;10167;42.852;23.042;2022-12-20T00:39:32;0.77;;;0.77;;
20012;SDS011;10167;42.852;23.042;2022-12-20T00:42:01;0.30;;;0.30;;
20012;SDS011;10167;42.852;23.042;2022-12-20T00:44:30;1.83;;;1.73;;
20012;SDS011;10167;42.852;23.042;2022-12-20T00:47:02;1.27;;;1.17;;
20012;SDS011;10167;42.852;23.042;2022-12-20T00:49:35;0.77;;;0.77;;
20012;SDS011;10167;42.852;23.042;2022-12-20T00:52:06;0.73;;;0.73;;
20012;SDS011;10167;42.852;23.042;2022-12-20T00:54:43;0.85;;;0.85;;
20012;SDS011;10167;42.852;23.042;2022-12-20T00:57:12;1.15;;;1.05;;
20012;SDS011;10167;42.852;23.042;2022-12-20T00:59:41;0.45;;;0.45;;
20012;SDS011;10167;42.852;23.042;2022-12-20T01:02:10;1.13;;;0.93;;
20012;SDS011;10167;42.852;23.042;2022-12-20T01:04:40;0.88;;;0.88;;
20012;SDS011;10167;42.852;23.042;2022-12-20T01:07:10;2.60;;;2.03;;
20012;SDS011;10167;42.852;23.042;2022-12-20T01:09:39;0.98;;;0.73;;
20012;SDS011;10167;42.852;23.042;2022-12-20T01:12:08;1.08;;;0.85;;
20012;SDS011;10167;42.852;23.042;2022-12-20T01:14:38;0.47;;;0.47;;
20012;SDS011;10167;42.852;23.042;2022-12-20T01:17:08;0.47;;;0.47;;
20012;SDS011;10167;42.852;23.042;2022-12-20T01:19:37;1.27;;;1.20;;
20012;SDS011;10167;42.852;23.042;2022-12-20T01:22:07;3.30;;;1.85;;
20012;SDS011;10167;42.852;23.042;2022-12-20T01:24:38;3.33;;;1.63;;
20012;SDS011;10167;42.852;23.042;2022-12-20T01:27:08;6.05;;;1.60;;
20012;SDS011;10167;42.852;23.042;2022-12-20T01:29:38;1.17;;;0.93;;
20012;SDS011;10167;42.852;23.042;2022-12-20T01:32:07;1.70;;;1.60;;
20012;SDS011;10167;42.852;23.042;2022-12-20T01:34:37;0.75;;;0.75;;
20012;SDS011;10167;42.852;23.042;2022-12-20T01:37:06;1.67;;;1.55;;
20012;SDS011;10167;42.852;23.042;2022-12-20T01:39:36;0.63;;;0.63;;
20012;SDS011;10167;42.852;23.042;2022-12-20T01:42:08;0.55;;;0.45;;
20012;SDS011;10167;42.852;23.042;2022-12-20T01:44:49;0.40;;;0.40;;
20012;SDS011;10167;42.852;23.042;2022-12-20T01:47:22;0.50;;;0.50;;
20012;SDS011;10167;42.852;23.042;2022-12-20T01:49:54;0.63;;;0.63;;
20012;SDS011;10167;42.852;23.042;2022-12-20T01:52:28;0.90;;;0.85;;
20012;SDS011;10167;42.852;23.042;2022-12-20T01:55:04;0.93;;;0.88;;
20012;SDS011;10167;42.852;23.042;2022-12-20T01:57:41;0.13;;;0.13;;
20012;SDS011;10167;42.852;23.042;2022-12-20T02:00:18;0.28;;;0.28;;
20012;SDS011;10167;42.852;23.042;2022-12-20T02:02:48;2.90;;;2.17;;
20012;SDS011;10167;42.852;23.042;2022-12-20T02:05:19;1.63;;;1.52;;
20012;SDS011;10167;42.852;23.042;2022-12-20T02:07:51;1.70;;;1.43;;
20012;SDS011;10167;42.852;23.042;2022-12-20T02:10:22;0.95;;;0.95;;
20012;SDS011;10167;42.852;23.042;2022-12-20T02:13:00;1.15;;;1.10;;
20012;SDS011;10167;42.852;23.042;2022-12-20T02:15:39;0.20;;;0.20;;
20012;SDS011;10167;42.852;23.042;2022-12-20T02:18:19;0.40;;;0.40;;
20012;SDS011;10167;42.852;23.042;2022-12-20T02:21:01;0.65;;;0.65;;
20012;SDS011;10167;42.852;23.042;2022-12-20T02:32:32;0.20;;;0.20;;
20012;SDS011;10167;42.852;23.042;2022-12-20T02:35:07;0.40;;;0.40;;
20012;SDS011;10167;42.852;23.042;2022-12-20T02:37:45;1.48;;;1.38;;
20012;SDS011;10167;42.852;23.042;2022-12-20T02:40:16;0.28;;;0.28;;
20012;SDS011;10167;42.852;23.042;2022-12-20T02:42:50;1.95;;;1.42;;
20012;SDS011;10167;42.852;23.042;2022-12-20T02:45:25;1.02;;;1.02;;
20012;SDS011;10167;42.852;23.042;2022-12-20T02:47:57;2.15;;;1.70;;
20012;SDS011;10167;42.852;23.042;2022-12-20T02:50:34;0.65;;;0.52;;
20012;SDS011;10167;42.852;23.042;2022-12-20T02:53:11;0.30;;;0.30;;
20012;SDS011;10167;42.852;23.042;2022-12-20T02:55:44;1.65;;;1.55;;
20012;SDS011;10167;42.852;23.042;2022-12-20T02:58:20;0.65;;;0.65;;
20012;SDS011;10167;42.852;23.042;2022-12-20T03:00:56;1.27;;;1.17;;
20012;SDS011;10167;42.852;23.042;2022-12-20T03:03:30;0.22;;;0.22;;
20012;SDS011;10167;42.852;23.042;2022-12-20T03:06:01;0.30;;;0.30;;
20012;SDS011;10167;42.852;23.042;2022-12-20T03:08:30;2.72;;;0.82;;
20012;SDS011;10167;42.852;23.042;2022-12-20T03:11:00;0.20;;;0.20;;
20012;SDS011;10167;42.852;23.042;2022-12-20T03:13:30;1.92;;;1.75;;
20012;SDS011;10167;42.852;23.042;2022-12-20T03:16:06;0.82;;;0.82;;
20012;SDS011;10167;42.852;23.042;2022-12-20T03:18:37;0.55;;;0.55;;
20012;SDS011;10167;42.852;23.042;2022-12-20T03:21:07;0.55;;;0.55;;
20012;SDS011;10167;42.852;23.042;2022-12-20T03:23:36;1.00;;;1.00;;
20012;SDS011;10167;42.852;23.042;2022-12-20T03:26:05;0.45;;;0.45;;
20012;SDS011;10167;42.852;23.042;2022-12-20T03:28:41;2.72;;;2.58;;
20012;SDS011;10167;42.852;23.042;2022-12-20T03:33:49;1.02;;;1.02;;
20012;SDS011;10167;42.852;23.042;2022-12-20T03:36:19;0.85;;;0.85;;
20012;SDS011;10167;42.852;23.042;2022-12-20T03:38:54;0.68;;;0.68;;
20012;SDS011;10167;42.852;23.042;2022-12-20T03:41:26;1.33;;;1.27;;
20012;SDS011;10167;42.852;23.042;2022-12-20T03:43:55;1.05;;;0.98;;
20012;SDS011;10167;42.852;23.042;2022-12-20T03:46:26;0.80;;;0.80;;
20012;SDS011;10167;42.852;23.042;2022-12-20T03:48:56;1.60;;;1.27;;
20012;SDS011;10167;42.852;23.042;2022-12-20T03:51:27;0.68;;;0.68;;
20012;SDS011;10167;42.852;23.042;2022-12-20T03:53:57;1.30;;;1.10;;
20012;SDS011;10167;42.852;23.042;2022-12-20T03:56:44;0.57;;;0.57;;
20012;SDS011;10167;42.852;23.042;2022-12-20T03:59:14;1.00;;;1.00;;
20012;SDS011;10167;42.852;23.042;2022-12-20T04:01:45;0.70;;;0.70;;
20012;SDS011;10167;42.852;23.042;2022-12-20T04:04:15;0.98;;;0.43;;
20012;SDS011;10167;42.852;23.042;2022-12-20T04:06:44;0.28;;;0.28;;
20012;SDS011;10167;42.852;23.042;2022-12-20T04:09:15;0.55;;;0.55;;
20012;SDS011;10167;42.852;23.042;2022-12-20T04:11:48;2.53;;;0.73;;
20012;SDS011;10167;42.852;23.042;2022-12-20T04:14:18;1.00;;;0.93;;
20012;SDS011;10167;42.852;23.042;2022-12-20T04:16:49;2.92;;;2.38;;
20012;SDS011;10167;42.852;23.042;2022-12-20T04:19:21;0.50;;;0.50;;
20012;SDS011;10167;42.852;23.042;2022-12-20T04:21:51;0.65;;;0.55;;
20012;SDS011;10167;42.852;23.042;2022-12-20T04:24:43;0.43;;;0.43;;
20012;SDS011;10167;42.852;23.042;2022-12-20T04:27:24;1.58;;;1.48;;
20012;SDS011;10167;42.852;23.042;2022-12-20T04:29:56;2.45;;;1.48;;
20012;SDS011;10167;42.852;23.042;2022-12-20T04:32:27;1.90;;;1.67;;
20012;SDS011;10167;42.852;23.042;2022-12-20T04:34:57;0.40;;;0.40;;
20012;SDS011;10167;42.852;23.042;2022-12-20T04:37:27;1.35;;;1.33;;
20012;SDS011;10167;42.852;23.042;2022-12-20T04:40:18;6.03;;;1.35;;
20012;SDS011;10167;42.852;23.042;2022-12-20T04:42:52;2.08;;;1.98;;
20012;SDS011;10167;42.852;23.042;2022-12-20T04:45:21;2.65;;;1.55;;
20012;SDS011;10167;42.852;23.042;2022-12-20T04:48:03;0.65;;;0.65;;
20012;SDS011;10167;42.852;23.042;2022-12-20T04:50:55;0.80;;;0.80;;
20012;SDS011;10167;42.852;23.042;2022-12-20T04:53:27;0.20;;;0.20;;
20012;SDS011;10167;42.852;23.042;2022-12-20T04:56:24;0.47;;;0.47;;
20012;SDS011;10167;42.852;23.042;2022-12-20T04:59:00;0.20;;;0.20;;
20012;SDS011;10167;42.852;23.042;2022-12-20T05:01:32;6.43;;;2.20;;
20012;SDS011;10167;42.852;23.042;2022-12-20T05:04:03;0.93;;;0.45;;
20012;SDS011;10167;42.852;23.042;2022-12-20T05:06:36;0.73;;;0.73;;
20012;SDS011;10167;42.852;23.042;2022-12-20T05:09:06;0.93;;;0.60;;
20012;SDS011;10167;42.852;23.042;2022-12-20T05:11:35;2.65;;;2.20;;
20012;SDS011;10167;42.852;23.042;2022-12-20T05:14:07;0.98;;;0.95;;
20012;SDS011;10167;42.852;23.042;2022-12-20T05:16:36;1.10;;;1.05;;
20012;SDS011;10167;42.852;23.042;2022-12-20T05:19:07;1.88;;;1.52;;
20012;SDS011;10167;42.852;23.042;2022-12-20T05:24:25;0.93;;;0.93;;
20012;SDS011;10167;42.852;23.042;2022-12-20T05:27:21;2.22;;;0.93;;
20012;SDS011;10167;42.852;23.042;2022-12-20T05:29:50;0.70;;;0.70;;
20012;SDS011;10167;42.852;23.042;2022-12-20T05:32:20;1.23;;;0.98;;
20012;SDS011;10167;42.852;23.042;2022-12-20T05:34:53;0.55;;;0.55;;
20012;SDS011;10167;42.852;23.042;2022-12-20T05:37:23;1.48;;;1.38;;
20012;SDS011;10167;42.852;23.042;2022-12-20T05:39:56;2.85;;;2.50;;
20012;SDS011;10167;42.852;23.042;2022-12-20T05:42:26;0.52;;;0.52;;
20012;SDS011;10167;42.852;23.042;2022-12-20T05:44:55;3.35;;;1.60;;
20012;SDS011;10167;42.852;23.042;2022-12-20T05:47:26;0.80;;;0.77;;
20012;SDS011;10167;42.852;23.042;2022-12-20T05:50:08;0.35;;;0.35;;
20012;SDS011;10167;42.852;23.042;2022-12-20T05:53:03;1.75;;;1.20;;
20012;SDS011;10167;42.852;23.042;2022-12-20T05:55:49;0.30;;;0.30;;
20012;SDS011;10167;42.852;23.042;2022-12-20T05:58:28;0.50;;;0.50;;
20012;SDS011;10167;42.852;23.042;2022-12-20T06:01:00;0.93;;;0.90;;
20012;SDS011;10167;42.852;23.042;2022-12-20T06:03:35;4.50;;;3.50;;
20012;SDS011;10167;42.852;23.042;2022-12-20T06:06:11;1.98;;;1.88;;
20012;SDS011;10167;42.852;23.042;2022-12-20T06:08:44;1.90;;;1.80;;
20012;SDS011;10167;42.852;23.042;2022-12-20T06:11:23;0.73;;;0.70;;
20012;SDS011;10167;42.852;23.042;2022-12-20T06:14:03;0.95;;;0.95;;
20012;SDS011;10167;42.852;23.042;2022-12-20T06:16:34;1.17;;;0.77;;
20012;SDS011;10167;42.852;23.042;2022-12-20T06:19:05;0.50;;;0.50;;
20012;SDS011;10167;42.852;23.042;2022-12-20T06:21:37;0.30;;;0.30;;
20012;SDS011;10167;42.852;23.042;2022-12-20T06:24:08;0.68;;;0.68;;
20012;SDS011;10167;42.852;23.042;2022-12-20T06:29:11;1.08;;;1.05;;
20012;SDS011;10167;42.852;23.042;2022-12-20T06:31:49;1.13;;;1.13;;
20012;SDS011;10167;42.852;23.042;2022-12-20T06:34:19;0.25;;;0.22;;
20012;SDS011;10167;42.852;23.042;2022-12-20T06:36:50;3.80;;;1.65;;
20012;SDS011;10167;42.852;23.042;2022-12-20T06:39:23;2.00;;;1.80;;
20012;SDS011;10167;42.852;23.042;2022-12-20T06:42:02;1.27;;;0.85;;
20012;SDS011;10167;42.852;23.042;2022-12-20T06:44:34;1.95;;;1.60;;
20012;SDS011;10167;42.852;23.042;2022-12-20T06:47:03;6.18;;;2.30;;
20012;SDS011;10167;42.852;23.042;2022-12-20T06:49:33;0.50;;;0.50;;
20012;SDS011;10167;42.852;23.042;2022-12-20T06:52:11;3.17;;;1.77;;
20012;SDS011;10167;42.852;23.042;2022-12-20T06:54:44;0.90;;;0.90;;
20012;SDS011;10167;42.852;23.042;2022-12-20T06:57:14;0.65;;;0.65;;
20012;SDS011;10167;42.852;23.042;2022-12-20T06:59:46;2.43;;;2.23;;
20012;SDS011;10167;42.852;23.042;2022-12-20T07:02:16;0.50;;;0.50;;
20012;SDS011;10167;42.852;23.042;2022-12-20T07:04:45;1.77;;;1.65;;
20012;SDS011;10167;42.852;23.042;2022-12-20T07:07:16;2.42;;;1.60;;
20012;SDS011;10167;42.852;23.042;2022-12-20T07:09:46;0.43;;;0.43;;
20012;SDS011;10167;42.852;23.042;2022-12-20T07:12:16;5.00;;;2.35;;
20012;SDS011;10167;42.852;23.042;2022-12-20T07:14:45;1.48;;;1.25;;
20012;SDS011;10167;42.852;23.042;2022-12-20T07:17:14;0.63;;;0.63;;
20012;SDS011;10167;42.852;23.042;2022-12-20T07:19:43;0.98;;;0.98;;
20012;SDS011;10167;42.852;23.042;2022-12-20T07:22:18;2.20;;;2.00;;
20012;SDS011;10167;42.852;23.042;2022-12-20T07:24:47;2.33;;;2.17;;
20012;SDS011;10167;42.852;23.042;2022-12-20T07:27:16;1.73;;;1.63;;
20012;SDS011;10167;42.852;23.042;2022-12-20T07:29:46;0.60;;;0.60;;
20012;SDS011;10167;42.852;23.042;2022-12-20T07:32:15;1.88;;;1.45;;
20012;SDS011;10167;42.852;23.042;2022-12-20T07:34:45;0.63;;;0.60;;
20012;SDS011;10167;42.852;23.042;2022-12-20T07:37:14;1.05;;;1.00;;
20012;SDS011;10167;42.852;23.042;2022-12-20T07:39:45;0.85;;;0.70;;
20012;SDS011;10167;42.852;23.042;2022-12-20T07:42:14;0.28;;;0.28;;
20012;SDS011;10167;42.852;23.042;2022-12-20T07:44:48;1.23;;;1.23;;
20012;SDS011;10167;42.852;23.042;2022-12-20T07:47:17;1.13;;;1.13;;
20012;SDS011;10167;42.852;23.042;2022-12-20T07:49:47;1.45;;;1.38;;
20012;SDS011;10167;42.852;23.042;2022-12-20T07:52:17;1.42;;;1.33;;
20012;SDS011;10167;42.852;23.042;2022-12-20T07:54:52;2.35;;;1.67;;
20012;SDS011;10167;42.852;23.042;2022-12-20T07:57:30;1.73;;;1.63;;
20012;SDS011;10167;42.852;23.042;2022-12-20T08:00:03;2.25;;;1.50;;
20012;SDS011;10167;42.852;23.042;2022-12-20T08:02:38;0.68;;;0.63;;
20012;SDS011;10167;42.852;23.042;2022-12-20T08:05:12;3.60;;;2.15;;
20012;SDS011;10167;42.852;23.042;2022-12-20T08:07:42;4.07;;;1.90;;
20012;SDS011;10167;42.852;23.042;2022-12-20T08:10:21;0.47;;;0.47;;
20012;SDS011;10167;42.852;23.042;2022-12-20T08:12:50;0.15;;;0.15;;
20012;SDS011;10167;42.852;23.042;2022-12-20T08:15:19;0.95;;;0.95;;
20012;SDS011;10167;42.852;23.042;2022-12-20T08:17:49;1.48;;;0.85;;
20012;SDS011;10167;42.852;23.042;2022-12-20T08:20:18;1.48;;;1.38;;
20012;SDS011;10167;42.852;23.042;2022-12-20T08:22:48;4.40;;;2.53;;
20012;SDS011;10167;42.852;23.042;2022-12-20T08:25:18;3.95;;;1.75;;
20012;SDS011;10167;42.852;23.042;2022-12-20T08:27:49;0.30;;;0.30;;
20012;SDS011;10167;42.852;23.042;2022-12-20T08:30:19;1.77;;;1.05;;
20012;SDS011;10167;42.852;23.042;2022-12-20T08:32:48;0.95;;;0.93;;
20012;SDS011;10167;42.852;23.042;2022-12-20T08:35:17;0.45;;;0.45;;
20012;SDS011;10167;42.852;23.042;2022-12-20T08:37:47;0.68;;;0.68;;
20012;SDS011;10167;42.852;23.042;2022-12-20T08:40:19;1.77;;;1.17;;
20012;SDS011;10167;42.852;23.042;2022-12-20T08:42:49;1.00;;;0.98;;
20012;SDS011;10167;42.852;23.042;2022-12-20T08:45:18;0.68;;;0.68;;
20012;SDS011;10167;42.852;23.042;2022-12-20T08:47:48;0.30;;;0.30;;
20012;SDS011;10167;42.852;23.042;2022-12-20T08:50:17;0.88;;;0.82;;
20012;SDS011;10167;42.852;23.042;2022-12-20T08:52:48;1.38;;;1.13;;
20012;SDS011;10167;42.852;23.042;2022-12-20T08:55:17;0.75;;;0.75;;
20012;SDS011;10167;42.852;23.042;2022-12-20T08:57:55;3.20;;;1.88;;
20012;SDS011;10167;42.852;23.042;2022-12-20T09:00:25;2.28;;;2.13;;
20012;SDS011;10167;42.852;23.042;2022-12-20T09:02:54;0.65;;;0.63;;
20012;SDS011;10167;42.852;23.042;2022-12-20T09:05:24;0.93;;;0.93;;
20012;SDS011;10167;42.852;23.042;2022-12-20T09:07:53;1.58;;;1.45;;
20012;SDS011;10167;42.852;23.042;2022-12-20T09:10:22;1.05;;;1.02;;
20012;SDS011;10167;42.852;23.042;2022-12-20T09:12:54;1.40;;;1.40;;
20012;SDS011;10167;42.852;23.042;2022-12-20T09:17:55;2.05;;;1.20;;
20012;SDS011;10167;42.852;23.042;2022-12-20T09:20:24;1.05;;;1.05;;
20012;SDS011;10167;42.852;23.042;2022-12-20T09:22:53;0.93;;;0.90;;
20012;SDS011;10167;42.852;23.042;2022-12-20T09:25:23;2.45;;;2.25;;
20012;SDS011;10167;42.852;23.042;2022-12-20T09:27:52;0.47;;;0.47;;
20012;SDS011;10167;42.852;23.042;2022-12-20T09:30:24;1.00;;;0.93;;
20012;SDS011;10167;42.852;23.042;2022-12-20T09:32:54;1.20;;;1.20;;
20012;SDS011;10167;42.852;23.042;2022-12-20T09:35:42;0.77;;;0.77;;
20012;SDS011;10167;42.852;23.042;2022-12-20T09:38:12;1.27;;;1.13;;
20012;SDS011;10167;42.852;23.042;2022-12-20T09:40:44;4.13;;;1.02;;
20012;SDS011;10167;42.852;23.042;2022-12-20T09:43:15;0.93;;;0.93;;
20012;SDS011;10167;42.852;23.042;2022-12-20T09:45:47;2.72;;;0.93;;
20012;SDS011;10167;42.852;23.042;2022-12-20T09:48:23;4.20;;;1.58;;
20012;SDS011;10167;42.852;23.042;2022-12-20T09:50:57;0.40;;;0.40;;
20012;SDS011;10167;42.852;23.042;2022-12-20T09:53:36;0.30;;;0.30;;
20012;SDS011;10167;42.852;23.042;2022-12-20T09:56:18;1.13;;;0.63;;
20012;SDS011;10167;42.852;23.042;2022-12-20T09:58:56;0.43;;;0.43;;
20012;SDS011;10167;42.852;23.042;2022-12-20T10:01:30;0.60;;;0.60;;
20012;SDS011;10167;42.852;23.042;2022-12-20T10:04:09;1.40;;;1.30;;
20012;SDS011;10167;42.852;23.042;2022-12-20T10:06:46;0.82;;;0.82;;
20012;SDS011;10167;42.852;23.042;2022-12-20T10:09:34;1.38;;;1.27;;
20012;SDS011;10167;42.852;23.042;2022-12-20T10:12:16;1.00;;;0.93;;
20012;SDS011;10167;42.852;23.042;2022-12-20T10:15:00;1.63;;;1.58;;
20012;SDS011;10167;42.852;23.042;2022-12-20T10:17:48;10.45;;;1.40;;
20012;SDS011;10167;42.852;23.042;2022-12-20T10:20:29;2.17;;;1.08;;
20012;SDS011;10167;42.852;23.042;2022-12-20T10:23:10;2.53;;;1.73;;
20012;SDS011;10167;42.852;23.042;2022-12-20T10:25:59;0.93;;;0.93;;
20012;SDS011;10167;42.852;23.042;2022-12-20T10:28:32;0.85;;;0.85;;
20012;SDS011;10167;42.852;23.042;2022-12-20T10:31:04;4.50;;;1.95;;
20012;SDS011;10167;42.852;23.042;2022-12-20T10:33:37;1.05;;;1.05;;
20012;SDS011;10167;42.852;23.042;2022-12-20T10:36:23;6.30;;;1.67;;
20012;SDS011;10167;42.852;23.042;2022-12-20T10:38:56;1.67;;;1.58;;
20012;SDS011;10167;42.852;23.042;2022-12-20T10:41:27;1.50;;;1.40;;
20012;SDS011;10167;42.852;23.042;2022-12-20T10:43:59;1.58;;;0.93;;
20012;SDS011;10167;42.852;23.042;2022-12-20T10:46:34;0.73;;;0.73;;
20012;SDS011;10167;42.852;23.042;2022-12-20T10:51:56;1.70;;;1.60;;
20012;SDS011;10167;42.852;23.042;2022-12-20T10:54:28;0.80;;;0.80;;
20012;SDS011;10167;42.852;23.042;2022-12-20T10:57:02;2.63;;;1.98;;
20012;SDS011;10167;42.852;23.042;2022-12-20T10:59:48;4.40;;;1.67;;
20012;SDS011;10167;42.852;23.042;2022-12-20T11:02:24;1.67;;;1.58;;
20012;SDS011;10167;42.852;23.042;2022-12-20T11:05:18;0.88;;;0.88;;
20012;SDS011;10167;42.852;23.042;2022-12-20T11:07:53;1.08;;;0.98;;
20012;SDS011;10167;42.852;23.042;2022-12-20T11:10:45;0.40;;;0.40;;
20012;SDS011;10167;42.852;23.042;2022-12-20T11:13:19;1.30;;;1.02;;
20012;SDS011;10167;42.852;23.042;2022-12-20T11:15:50;1.70;;;1.60;;
20012;SDS011;10167;42.852;23.042;2022-12-20T11:18:27;1.23;;;1.05;;
20012;SDS011;10167;42.852;23.042;2022-12-20T11:21:10;1.17;;;0.77;;
20012;SDS011;10167;42.852;23.042;2022-12-20T11:23:57;1.63;;;1.27;;
20012;SDS011;10167;42.852;23.042;2022-12-20T11:26:39;3.85;;;2.25;;
20012;SDS011;10167;42.852;23.042;2022-12-20T11:29:25;0.38;;;0.38;;
20012;SDS011;10167;42.852;23.042;2022-12-20T11:32:04;0.60;;;0.50;;
20012;SDS011;10167;42.852;23.042;2022-12-20T11:34:45;0.82;;;0.82;;
20012;SDS011;10167;42.852;23.042;2022-12-20T11:37:24;0.28;;;0.28;;
20012;SDS011;10167;42.852;23.042;2022-12-20T11:40:03;0.28;;;0.28;;
20012;SDS011;10167;42.852;23.042;2022-12-20T11:42:47;2.10;;;1.10;;
20012;SDS011;10167;42.852;23.042;2022-12-20T11:45:29;0.85;;;0.82;;
20012;SDS011;10167;42.852;23.042;2022-12-20T11:48:11;2.92;;;1.35;;
20012;SDS011;10167;42.852;23.042;2022-12-20T11:51:03;0.80;;;0.75;;
20012;SDS011;10167;42.852;23.042;2022-12-20T11:53:47;1.23;;;0.93;;
20012;SDS011;10167;42.852;23.042;2022-12-20T11:56:21;4.10;;;3.08;;
20012;SDS011;10167;42.852;23.042;2022-12-20T11:58:54;4.70;;;2.88;;
20012;SDS011;10167;42.852;23.042;2022-12-20T12:01:29;1.10;;;1.10;;
20012;SDS011;10167;42.852;23.042;2022-12-20T12:04:07;0.98;;;0.98;;
20012;SDS011;10167;42.852;23.042;2022-12-20T12:06:41;0.50;;;0.50;;
20012;SDS011;10167;42.852;23.042;2022-12-20T12:09:16;3.20;;;2.58;;
20012;SDS011;10167;42.852;23.042;2022-12-20T12:11:53;2.70;;;2.00;;
20012;SDS011;10167;42.852;23.042;2022-12-20T12:14:37;0.68;;;0.68;;
20012;SDS011;10167;42.852;23.042;2022-12-20T12:17:17;0.50;;;0.50;;
20012;SDS011;10167;42.852;23.042;2022-12-20T12:19:54;1.15;;;0.90;;
20012;SDS011;10167;42.852;23.042;2022-12-20T12:22:30;1.98;;;1.05;;
20012;SDS011;10167;42.852;23.042;2022-12-20T12:25:07;1.45;;;1.35;;
20012;SDS011;10167;42.852;23.042;2022-12-20T12:27:42;2.63;;;0.93;;
20012;SDS011;10167;42.852;23.042;2022-12-20T12:30:12;0.70;;;0.70;;
20012;SDS011;10167;42.852;23.042;2022-12-20T12:32:44;0.75;;;0.75;;
20012;SDS011;10167;42.852;23.042;2022-12-20T12:35:42;1.42;;;1.33;;
20012;SDS011;10167;42.852;23.042;2022-12-20T12:38:33;0.73;;;0.73;;
20012;SDS011;10167;42.852;23.042;2022-12-20T12:41:28;4.28;;;1.58;;
20012;SDS011;10167;42.852;23.042;2022-12-20T12:44:28;2.15;;;0.77;;
20012;SDS011;10167;42.852;23.042;2022-12-20T12:47:04;1.65;;;1.55;;
20012;SDS011;10167;42.852;23.042;2022-12-20T12:49:40;0.50;;;0.50;;
20012;SDS011;10167;42.852;23.042;2022-12-20T12:52:16;2.92;;;2.55;;
20012;SDS011;10167;42.852;23.042;2022-12-20T12:55:02;1.52;;;1.42;;
20012;SDS011;10167;42.852;23.042;2022-12-20T12:57:56;0.77;;;0.77;;
20012;SDS011;10167;42.852;23.042;2022-12-20T13:03:34;0.30;;;0.30;;
20012;SDS011;10167;42.852;23.042;2022-12-20T13:09:19;0.90;;;0.90;;
20012;SDS011;10167;42.852;23.042;2022-12-20T13:11:50;1.80;;;1.35;;
20012;SDS011;10167;42.852;23.042;2022-12-20T13:14:48;1.73;;;1.20;;
20012;SDS011;10167;42.852;23.042;2022-12-20T13:20:18;0.85;;;0.82;;
20012;SDS011;10167;42.852;23.042;2022-12-20T13:23:12;2.63;;;2.10;;
20012;SDS011;10167;42.852;23.042;2022-12-20T13:25:44;0.85;;;0.50;;
20012;SDS011;10167;42.852;23.042;2022-12-20T13:34:22;1.45;;;1.35;;
20012;SDS011;10167;42.852;23.042;2022-12-20T13:37:24;1.40;;;0.93;;
20012;SDS011;10167;42.852;23.042;2022-12-20T13:39:55;2.75;;;2.55;;
20012;SDS011;10167;42.852;23.042;2022-12-20T13:42:33;13.00;;;4.25;;
20012;SDS011;10167;42.852;23.042;2022-12-20T13:45:09;1.05;;;1.05;;
20012;SDS011;10167;42.852;23.042;2022-12-20T13:47:45;1.83;;;1.65;;
20012;SDS011;10167;42.852;23.042;2022-12-20T13:50:21;1.75;;;1.65;;
20012;SDS011;10167;42.852;23.042;2022-12-20T13:52:54;1.42;;;1.38;;
20012;SDS011;10167;42.852;23.042;2022-12-20T13:55:26;7.90;;;3.08;;
20012;SDS011;10167;42.852;23.042;2022-12-20T13:58:04;8.98;;;6.32;;
20012;SDS011;10167;42.852;23.042;2022-12-20T14:00:38;1.55;;;1.20;;
20012;SDS011;10167;42.852;23.042;2022-12-20T14:03:16;0.77;;;0.77;;
20012;SDS011;10167;42.852;23.042;2022-12-20T14:05:56;1.17;;;1.13;;
20012;SDS011;10167;42.852;23.042;2022-12-20T14:08:29;2.13;;;1.83;;
20012;SDS011;10167;42.852;23.042;2022-12-20T14:11:10;1.23;;;1.00;;
20012;SDS011;10167;42.852;23.042;2022-12-20T14:13:41;0.68;;;0.68;;
20012;SDS011;10167;42.852;23.042;2022-12-20T14:16:12;1.20;;;1.10;;
20012;SDS011;10167;42.852;23.042;2022-12-20T14:18:48;2.42;;;2.22;;
20012;SDS011;10167;42.852;23.042;2022-12-20T14:21:18;5.38;;;1.48;;
20012;SDS011;10167;42.852;23.042;2022-12-20T14:23:48;5.45;;;1.90;;
20012;SDS011;10167;42.852;23.042;2022-12-20T14:26:21;2.42;;;2.22;;
20012;SDS011;10167;42.852;23.042;2022-12-20T14:28:55;1.50;;;1.35;;
20012;SDS011;10167;42.852;23.042;2022-12-20T14:31:26;3.05;;;2.45;;
20012;SDS011;10167;42.852;23.042;2022-12-20T14:34:04;17.33;;;8.15;;
20012;SDS011;10167;42.852;23.042;2022-12-20T14:36:39;9.02;;;4.25;;
20012;SDS011;10167;42.852;23.042;2022-12-20T14:39:22;8.25;;;5.90;;
20012;SDS011;10167;42.852;23.042;2022-12-20T14:44:25;13.85;;;10.23;;
20012;SDS011;10167;42.852;23.042;2022-12-20T14:46:56;7.90;;;6.18;;
20012;SDS011;10167;42.852;23.042;2022-12-20T14:49:31;6.57;;;3.35;;
20012;SDS011;10167;42.852;23.042;2022-12-20T14:52:10;6.10;;;5.50;;
20012;SDS011;10167;42.852;23.042;2022-12-20T14:54:44;10.65;;;3.65;;
20012;SDS011;10167;42.852;23.042;2022-12-20T14:57:39;2.85;;;2.60;;
20012;SDS011;10167;42.852;23.042;2022-12-20T15:00:14;15.63;;;7.72;;
20012;SDS011;10167;42.852;23.042;2022-12-20T15:02:50;12.95;;;10.75;;
20012;SDS011;10167;42.852;23.042;2022-12-20T15:08:23;16.00;;;10.52;;
20012;SDS011;10167;42.852;23.042;2022-12-20T15:10:55;12.05;;;8.27;;
20012;SDS011;10167;42.852;23.042;2022-12-20T15:13:30;27.33;;;13.40;;
20012;SDS011;10167;42.852;23.042;2022-12-20T15:16:00;18.08;;;11.30;;
20012;SDS011;10167;42.852;23.042;2022-12-20T15:18:31;13.18;;;10.07;;
20012;SDS011;10167;42.852;23.042;2022-12-20T15:21:04;8.10;;;5.55;;
20012;SDS011;10167;42.852;23.042;2022-12-20T15:23:34;8.32;;;5.05;;
20012;SDS011;10167;42.852;23.042;2022-12-20T15:26:04;9.20;;;6.05;;
20012;SDS011;10167;42.852;23.042;2022-12-20T15:28:33;13.35;;;8.10;;
20012;SDS011;10167;42.852;23.042;2022-12-20T15:31:03;9.20;;;5.75;;
20012;SDS011;10167;42.852;23.042;2022-12-20T15:33:33;7.97;;;7.03;;
20012;SDS011;10167;42.852;23.042;2022-12-20T15:36:04;10.90;;;8.15;;
20012;SDS011;10167;42.852;23.042;2022-12-20T15:38:35;10.10;;;7.35;;
20012;SDS011;10167;42.852;23.042;2022-12-20T15:41:25;19.88;;;8.38;;
20012;SDS011;10167;42.852;23.042;2022-12-20T15:43:57;7.57;;;5.88;;
20012;SDS011;10167;42.852;23.042;2022-12-20T15:46:28;11.85;;;6.45;;
20012;SDS011;10167;42.852;23.042;2022-12-20T15:48:57;4.70;;;3.60;;
20012;SDS011;10167;42.852;23.042;2022-12-20T15:51:29;4.10;;;3.72;;
20012;SDS011;10167;42.852;23.042;2022-12-20T15:54:01;3.63;;;3.33;;
20012;SDS011;10167;42.852;23.042;2022-12-20T15:56:31;5.00;;;4.18;;
20012;SDS011;10167;42.852;23.042;2022-12-20T15:59:00;7.95;;;4.40;;